Dungeness, Washington
Current Conditions -  °F | °C
As of 4:53 PM on Monday 22 Dec 2014 (Local Time) from KCLM Reporting Station
Broken Clouds Broken Clouds  
Wind Chill: 44°   Ceiling: 12000
Heat Index: 44°   Visibility: 10mi
Dew Point: 39°   Wind: 0mph
Humidity: 82%   Direction: NA
Pressure: 30.37"   Gusts: NA
Location:  48.0015°N, 123.09°W
Report Text: KCLM 230053Z AUTO 00000KT 10SM FEW010 BKN120 07/04 A3037 RMK AO2 SLP287 T00670039 TSNO $
Loading
Personal Weather Stations






























Interactive Weather Map New forecast layout! Learn more

10-Day Weather Forecast

Advertisements
Track Severe Weather on mobile